createdAt,value
2022-09-18T00:01:16.801Z,98728.28
2022-09-18T00:03:46.324Z,98734.53
2022-09-18T00:06:20.246Z,98724.31
2022-09-18T00:08:50.243Z,98730.78
2022-09-18T00:11:18.054Z,98726.94
2022-09-18T00:13:46.329Z,98723.06
2022-09-18T00:16:15.602Z,98726.44
2022-09-18T00:18:43.822Z,98718.47
2022-09-18T00:21:13.535Z,98723.44
2022-09-18T00:23:46.017Z,98723.69
2022-09-18T00:26:15.252Z,98723.22
2022-09-18T00:28:43.259Z,98718.16
2022-09-18T00:31:13.191Z,98724.50
2022-09-18T00:33:41.427Z,98726.41
2022-09-18T00:36:12.338Z,98724.44
2022-09-18T00:38:40.399Z,98727.16
2022-09-18T00:41:14.018Z,98735.13
2022-09-18T00:43:44.767Z,98728.50
2022-09-18T00:46:22.917Z,98731.63
2022-09-18T00:48:58.145Z,98738.22
2022-09-18T00:51:26.831Z,98733.44
2022-09-18T00:54:07.703Z,98730.06
2022-09-18T00:56:37.112Z,98735.22
2022-09-18T00:59:08.000Z,98729.69
2022-09-18T01:01:35.765Z,98738.50
2022-09-18T01:04:03.818Z,98733.31
2022-09-18T01:06:39.596Z,98731.50
2022-09-18T01:09:27.736Z,98726.69
2022-09-18T01:12:11.859Z,98720.91
2022-09-18T01:14:51.850Z,98727.19
2022-09-18T01:17:27.070Z,98728.75
2022-09-18T01:20:18.190Z,98745.53
2022-09-18T01:23:00.412Z,98742.31
2022-09-18T01:25:34.122Z,98742.69
2022-09-18T01:28:16.854Z,98738.47
2022-09-18T01:30:48.947Z,98734.75
2022-09-18T01:33:21.708Z,98739.22
2022-09-18T01:35:54.746Z,98739.91
2022-09-18T01:38:29.761Z,98738.84
2022-09-18T01:41:02.746Z,98734.81
2022-09-18T01:43:33.891Z,98723.31
2022-09-18T01:46:08.077Z,98724.00
2022-09-18T01:48:41.856Z,98723.28
2022-09-18T01:51:15.995Z,98722.22
2022-09-18T01:53:47.122Z,98716.81
2022-09-18T01:56:20.893Z,98719.59
2022-09-18T01:58:58.538Z,98721.13
2022-09-18T02:01:38.939Z,98706.72
2022-09-18T02:04:10.872Z,98716.25
2022-09-18T02:06:44.744Z,98713.19
2022-09-18T02:09:14.376Z,98710.81
2022-09-18T02:11:47.698Z,98704.38
2022-09-18T02:14:22.814Z,98708.41
2022-09-18T02:17:22.651Z,98707.56
2022-09-18T02:19:55.530Z,98704.53
2022-09-18T02:22:27.709Z,98705.91
2022-09-18T02:25:01.635Z,98709.28
2022-09-18T02:27:32.087Z,98707.03
2022-09-18T02:30:02.582Z,98707.66
2022-09-18T02:32:30.979Z,98710.94
2022-09-18T02:34:59.030Z,98705.00
2022-09-18T02:37:39.098Z,98705.59
2022-09-18T02:40:20.442Z,98703.56
2022-09-18T02:42:58.692Z,98704.44
2022-09-18T02:45:35.878Z,98700.56
2022-09-18T02:48:18.656Z,98699.47
2022-09-18T02:50:57.411Z,98718.44
2022-09-18T02:53:31.669Z,98704.28
2022-09-18T02:56:03.786Z,98711.84
2022-09-18T02:58:39.928Z,98710.22
2022-09-18T03:01:13.009Z,98708.63
2022-09-18T03:03:42.648Z,98715.59
2022-09-18T03:06:12.157Z,98711.78
2022-09-18T03:08:40.077Z,98710.56
2022-09-18T03:11:07.760Z,98701.19
2022-09-18T03:13:35.844Z,98703.09
2022-09-18T03:16:04.621Z,98701.63
2022-09-18T03:18:33.680Z,98707.19
2022-09-18T03:21:01.373Z,98706.47
2022-09-18T03:23:29.287Z,98696.59
2022-09-18T03:26:08.770Z,98693.00
2022-09-18T03:28:39.472Z,98690.19
2022-09-18T03:31:07.231Z,98698.06
2022-09-18T03:33:36.500Z,98689.38
2022-09-18T03:36:04.491Z,98689.38
2022-09-18T03:38:32.289Z,98683.59
2022-09-18T03:41:00.156Z,98685.84
2022-09-18T03:43:27.895Z,98683.59
2022-09-18T03:45:55.710Z,98683.84
2022-09-18T03:48:23.383Z,98686.00
2022-09-18T03:50:53.780Z,98693.34
2022-09-18T03:53:22.692Z,98700.47
2022-09-18T03:55:57.674Z,98698.75
2022-09-18T03:58:54.274Z,98705.63
2022-09-18T04:01:34.708Z,98710.44
2022-09-18T04:04:20.710Z,98707.31
2022-09-18T04:07:28.080Z,98715.75
2022-09-18T04:10:21.101Z,98718.00
2022-09-18T04:12:48.801Z,98722.47
2022-09-18T04:15:23.918Z,98716.59
2022-09-18T04:17:51.625Z,98719.59
2022-09-18T04:20:20.685Z,98713.56
2022-09-18T04:22:50.053Z,98714.78
2022-09-18T04:25:18.351Z,98712.72
2022-09-18T04:27:47.671Z,98713.41
2022-09-18T04:30:16.819Z,98702.34
2022-09-18T04:32:46.013Z,98714.19
2022-09-18T04:35:16.542Z,98708.72
2022-09-18T04:37:45.711Z,98716.94
2022-09-18T04:40:15.543Z,98707.88
2022-09-18T04:42:43.938Z,98708.41
2022-09-18T04:45:13.962Z,98712.72
2022-09-18T04:47:41.991Z,98714.41
2022-09-18T04:50:11.749Z,98718.53
2022-09-18T04:52:59.440Z,98712.38
2022-09-18T04:55:29.717Z,98707.78
2022-09-18T04:57:57.615Z,98710.06
2022-09-18T05:00:25.480Z,98702.13
2022-09-18T05:02:53.861Z,98718.78
2022-09-18T05:05:25.319Z,98724.38
2022-09-18T05:07:53.399Z,98723.06
2022-09-18T05:10:23.275Z,98725.34
2022-09-18T05:12:53.208Z,98719.47
2022-09-18T05:15:21.044Z,98723.81
2022-09-18T05:17:59.506Z,98722.97
2022-09-18T05:20:27.304Z,98725.72
2022-09-18T05:22:56.704Z,98731.50
2022-09-18T05:25:27.279Z,98737.03
2022-09-18T05:27:57.796Z,98732.25
2022-09-18T05:30:30.724Z,98734.13
2022-09-18T05:33:01.848Z,98730.53
2022-09-18T05:35:32.902Z,98733.38
2022-09-18T05:38:01.726Z,98738.72
2022-09-18T05:40:34.593Z,98735.84
2022-09-18T05:43:04.768Z,98743.03
2022-09-18T05:45:37.755Z,98748.34
2022-09-18T05:48:29.335Z,98744.50
2022-09-18T05:50:59.603Z,98749.31
2022-09-18T05:53:28.796Z,98747.75
2022-09-18T05:56:06.286Z,98744.00
2022-09-18T05:58:35.376Z,98755.81
2022-09-18T06:01:04.594Z,98752.59
2022-09-18T06:03:59.435Z,98759.44
2022-09-18T06:06:37.054Z,98748.13
2022-09-18T06:09:06.964Z,98748.59
2022-09-18T06:11:34.800Z,98746.19
2022-09-18T06:14:03.975Z,98757.75
2022-09-18T06:16:35.637Z,98748.94
2022-09-18T06:19:08.123Z,98756.31
2022-09-18T06:21:36.321Z,98760.63
2022-09-18T06:24:06.477Z,98760.69
2022-09-18T06:26:44.558Z,98765.19
2022-09-18T06:29:13.675Z,98765.22
2022-09-18T06:31:56.662Z,98769.44
2022-09-18T06:34:27.188Z,98768.97
2022-09-18T06:36:58.645Z,98766.44
2022-09-18T06:39:31.460Z,98770.75
2022-09-18T06:42:00.999Z,98768.56
2022-09-18T06:44:48.943Z,98753.19
2022-09-18T06:47:17.902Z,98750.06
2022-09-18T06:49:47.875Z,98750.78
2022-09-18T06:52:17.780Z,98749.91
2022-09-18T06:54:47.173Z,98754.59
2022-09-18T06:57:29.604Z,98756.31
2022-09-18T06:59:59.293Z,98759.22
2022-09-18T07:02:28.868Z,98767.50
2022-09-18T07:05:08.485Z,98764.63
2022-09-18T07:07:38.822Z,98767.16
2022-09-18T07:10:09.286Z,98762.78
2022-09-18T07:12:46.791Z,98760.63
2022-09-18T07:15:16.319Z,98769.09
2022-09-18T07:17:44.127Z,98763.50
2022-09-18T07:20:15.954Z,98765.75
2022-09-18T07:22:47.417Z,98759.84
2022-09-18T07:25:16.269Z,98769.16
2022-09-18T07:27:44.979Z,98771.22
2022-09-18T07:30:19.204Z,98772.84
2022-09-18T07:32:47.387Z,98764.31
2022-09-18T07:35:18.779Z,98769.84
2022-09-18T07:37:46.635Z,98770.97
2022-09-18T07:40:19.625Z,98775.00
2022-09-18T07:43:10.593Z,98779.34
2022-09-18T07:45:46.167Z,98774.97
2022-09-18T07:48:13.918Z,98779.81
2022-09-18T07:50:47.407Z,98781.03
2022-09-18T07:53:17.555Z,98772.31
2022-09-18T07:55:48.276Z,98782.97
2022-09-18T07:58:19.032Z,98771.78
2022-09-18T08:01:01.340Z,98781.72
2022-09-18T08:03:30.110Z,98791.13
2022-09-18T08:06:08.432Z,98780.84
2022-09-18T08:08:37.047Z,98790.06
2022-09-18T08:11:14.842Z,98795.06
2022-09-18T08:14:00.976Z,98790.78
2022-09-18T08:16:35.915Z,98790.78
2022-09-18T08:19:19.232Z,98779.59
2022-09-18T08:21:52.179Z,98790.22
2022-09-18T08:24:20.088Z,98796.09
2022-09-18T08:26:47.914Z,98792.28
2022-09-18T08:29:19.256Z,98793.63
2022-09-18T08:31:57.723Z,98793.22
2022-09-18T08:34:26.920Z,98799.19
2022-09-18T08:36:56.075Z,98803.44
2022-09-18T08:39:46.658Z,98800.00
2022-09-18T08:42:48.394Z,98804.44
2022-09-18T08:45:37.166Z,98794.25
2022-09-18T08:48:14.201Z,98807.78
2022-09-18T08:50:51.137Z,98793.56
2022-09-18T08:53:26.973Z,98800.66
2022-09-18T08:56:34.869Z,98800.66
2022-09-18T08:59:36.463Z,98803.31
2022-09-18T09:02:25.197Z,98796.03
2022-09-18T09:05:00.954Z,98806.28
2022-09-18T09:07:44.340Z,98793.22
2022-09-18T09:10:31.728Z,98790.47
2022-09-18T09:13:19.992Z,98798.03
2022-09-18T09:15:55.261Z,98795.41
2022-09-18T09:18:31.063Z,98802.84
2022-09-18T09:24:21.905Z,98795.22
2022-09-18T09:24:43.992Z,98809.63
2022-09-18T09:27:20.845Z,98796.66
2022-09-18T09:30:31.648Z,98808.00
2022-09-18T09:33:27.744Z,98799.16
2022-09-18T09:36:24.896Z,98793.59
2022-09-18T09:38:58.133Z,98795.78
2022-09-18T09:41:33.876Z,98793.88
2022-09-18T09:44:11.688Z,98789.41
2022-09-18T09:46:48.287Z,98780.47
2022-09-18T09:49:22.765Z,98789.41
2022-09-18T09:51:58.771Z,98783.41
2022-09-18T09:54:26.683Z,98786.28
2022-09-18T09:57:01.102Z,98788.94
2022-09-18T09:59:40.662Z,98787.31
2022-09-18T10:02:33.939Z,98788.09
2022-09-18T10:05:11.518Z,98781.72
2022-09-18T10:07:47.612Z,98782.34
2022-09-18T10:10:21.412Z,98788.66
2022-09-18T10:12:53.715Z,98790.91
2022-09-18T10:15:27.312Z,98787.97
2022-09-18T10:18:01.451Z,98783.38
2022-09-18T10:20:32.347Z,98782.75
2022-09-18T10:23:07.529Z,98778.06
2022-09-18T10:25:42.158Z,98786.91
2022-09-18T10:28:13.648Z,98775.44
2022-09-18T10:31:02.882Z,98767.88
2022-09-18T10:33:36.932Z,98775.13
2022-09-18T10:36:19.368Z,98770.09
2022-09-18T10:38:49.106Z,98768.00
2022-09-18T10:41:31.352Z,98763.25
2022-09-18T10:44:05.846Z,98763.38
2022-09-18T10:46:36.985Z,98760.84
2022-09-18T10:49:19.766Z,98745.16
2022-09-18T10:51:47.965Z,98755.88
2022-09-18T10:54:22.873Z,98745.78
2022-09-18T10:57:05.764Z,98743.09
2022-09-18T10:59:35.680Z,98734.72
2022-09-18T11:02:07.215Z,98737.69
2022-09-18T11:04:37.607Z,98736.94
2022-09-18T11:07:07.864Z,98736.16
2022-09-18T11:09:40.757Z,98732.56
2022-09-18T11:12:18.013Z,98727.41
2022-09-18T11:14:48.422Z,98724.56
2022-09-18T11:17:29.391Z,98735.63
2022-09-18T11:20:02.142Z,98733.66
2022-09-18T11:22:48.015Z,98734.19
2022-09-18T11:25:47.066Z,98726.03
2022-09-18T11:28:24.797Z,98723.47
2022-09-18T11:30:58.033Z,98721.00
2022-09-18T11:33:28.737Z,98713.19
2022-09-18T11:36:03.362Z,98715.13
2022-09-18T11:38:33.728Z,98710.31
2022-09-18T11:41:04.312Z,98705.38
2022-09-18T11:43:41.454Z,98692.13
2022-09-18T11:46:21.560Z,98695.78
2022-09-18T11:49:01.306Z,98685.50
2022-09-18T11:51:40.807Z,98693.13
2022-09-18T11:54:14.771Z,98689.19
2022-09-18T11:56:49.537Z,98699.53
2022-09-18T11:59:28.246Z,98682.63
2022-09-18T12:02:01.510Z,98688.56
2022-09-18T12:04:41.621Z,98695.16
2022-09-18T12:10:12.282Z,98680.81
2022-09-18T12:12:45.601Z,98680.63
2022-09-18T12:15:19.523Z,98681.25
2022-09-18T12:17:54.554Z,98680.06
2022-09-18T12:20:26.886Z,98663.28
2022-09-18T12:22:56.665Z,98681.97
2022-09-18T12:25:37.932Z,98674.31
2022-09-18T12:28:29.868Z,98676.16
2022-09-18T12:31:10.801Z,98672.16
2022-09-18T12:33:45.342Z,98658.47
2022-09-18T12:36:35.981Z,98651.44
2022-09-18T12:39:19.802Z,98647.72
2022-09-18T12:42:01.254Z,98650.47
2022-09-18T12:44:50.124Z,98652.50
2022-09-18T12:47:35.188Z,98639.06
2022-09-18T12:50:18.734Z,98637.03
2022-09-18T12:53:08.950Z,98628.78
2022-09-18T12:55:56.660Z,98626.41
2022-09-18T12:58:46.568Z,98625.91
2022-09-18T13:01:24.127Z,98640.78
2022-09-18T13:03:53.473Z,98643.50
2022-09-18T13:06:37.074Z,98632.16
2022-09-18T13:09:12.817Z,98639.53
2022-09-18T13:11:45.483Z,98640.72
2022-09-18T13:14:18.974Z,98643.25
2022-09-18T13:16:54.981Z,98647.75
2022-09-18T13:19:28.255Z,98642.53
2022-09-18T13:21:57.467Z,98651.56
2022-09-18T13:24:29.459Z,98642.59
2022-09-18T13:26:58.756Z,98630.56
2022-09-18T13:29:56.677Z,98640.88
2022-09-18T13:32:37.999Z,98636.41
2022-09-18T13:35:20.501Z,98631.97
2022-09-18T13:37:49.449Z,98633.97
2022-09-18T13:40:35.372Z,98627.53
2022-09-18T13:43:35.156Z,98630.50
2022-09-18T13:46:11.369Z,98622.44
2022-09-18T13:48:48.733Z,98614.66
2022-09-18T13:51:22.029Z,98615.78
2022-09-18T13:54:16.907Z,98615.81
2022-09-18T13:57:20.118Z,98619.03
2022-09-18T13:59:50.932Z,98612.53
2022-09-18T14:02:40.220Z,98621.00
2022-09-18T14:05:31.851Z,98623.56
2022-09-18T14:08:14.980Z,98624.78
2022-09-18T14:11:14.002Z,98621.16
2022-09-18T14:13:51.689Z,98610.72
2022-09-18T14:16:29.684Z,98613.19
2022-09-18T14:19:02.174Z,98606.91
2022-09-18T14:21:35.163Z,98604.41
2022-09-18T14:24:06.470Z,98604.28
2022-09-18T14:26:57.285Z,98610.91
2022-09-18T14:29:29.253Z,98616.06
2022-09-18T14:32:01.181Z,98603.53
2022-09-18T14:34:37.037Z,98602.63
2022-09-18T14:37:23.857Z,98604.75
2022-09-18T14:39:53.140Z,98591.50
2022-09-18T14:42:32.422Z,98596.41
2022-09-18T14:45:15.940Z,98595.13
2022-09-18T14:47:47.516Z,98596.72
2022-09-18T14:50:31.223Z,98591.34
2022-09-18T14:53:02.315Z,98587.00
2022-09-18T14:55:34.866Z,98581.13
2022-09-18T14:58:07.451Z,98579.44
2022-09-18T15:00:37.077Z,98584.88
2022-09-18T15:03:10.054Z,98572.94
2022-09-18T15:05:38.147Z,98575.66
2022-09-18T15:08:15.846Z,98574.19
2022-09-18T15:10:48.276Z,98571.28
2022-09-18T15:13:17.475Z,98573.28
2022-09-18T15:15:47.172Z,98570.38
2022-09-18T15:18:21.202Z,98559.47
2022-09-18T15:20:50.694Z,98564.75
2022-09-18T15:23:27.521Z,98557.41
2022-09-18T15:25:58.238Z,98549.94
2022-09-18T15:28:29.932Z,98566.13
2022-09-18T15:31:03.472Z,98567.84
2022-09-18T15:33:35.041Z,98564.16
2022-09-18T15:36:04.715Z,98560.81
2022-09-18T15:38:41.337Z,98556.66
2022-09-18T15:41:24.307Z,98561.28
2022-09-18T15:43:52.661Z,98562.28
2022-09-18T15:46:28.347Z,98566.81
2022-09-18T15:49:00.293Z,98562.81
2022-09-18T15:51:30.617Z,98559.69
2022-09-18T15:54:07.634Z,98556.91
2022-09-18T15:56:36.608Z,98565.44
2022-09-18T15:59:07.669Z,98553.75
2022-09-18T16:01:39.850Z,98551.44
2022-09-18T16:04:20.357Z,98556.66
2022-09-18T16:06:58.146Z,98554.06
2022-09-18T16:09:35.012Z,98548.88
2022-09-18T16:12:23.172Z,98548.41
2022-09-18T16:15:03.548Z,98543.22
2022-09-18T16:17:53.828Z,98545.13
2022-09-18T16:20:32.508Z,98543.69
2022-09-18T16:23:20.801Z,98547.44
2022-09-18T16:26:03.269Z,98540.66
2022-09-18T16:28:33.767Z,98540.16
2022-09-18T16:31:02.830Z,98523.38
2022-09-18T16:33:33.064Z,98523.22
2022-09-18T16:36:06.536Z,98524.63
2022-09-18T16:38:36.887Z,98524.09
2022-09-18T16:41:05.014Z,98522.63
2022-09-18T16:43:32.798Z,98525.19
2022-09-18T16:46:01.851Z,98510.00
2022-09-18T16:48:30.004Z,98513.22
2022-09-18T16:50:57.716Z,98516.97
2022-09-18T16:53:25.471Z,98516.19
2022-09-18T16:55:56.955Z,98518.72
2022-09-18T16:58:28.986Z,98509.44
2022-09-18T17:00:57.955Z,98507.72
2022-09-18T17:03:28.365Z,98516.75
2022-09-18T17:05:56.207Z,98511.09
2022-09-18T17:08:24.216Z,98506.41
2022-09-18T17:10:51.950Z,98504.38
2022-09-18T17:13:19.741Z,98503.28
2022-09-18T17:15:47.439Z,98492.50
2022-09-18T17:18:15.411Z,98497.63
2022-09-18T17:20:45.818Z,98496.69
2022-09-18T17:23:13.575Z,98490.69
2022-09-18T17:25:41.459Z,98487.06
2022-09-18T17:28:12.393Z,98489.16
2022-09-18T17:30:43.591Z,98484.81
2022-09-18T17:33:11.512Z,98499.66
2022-09-18T17:35:50.349Z,98485.00
2022-09-18T17:38:18.231Z,98485.59
2022-09-18T17:40:56.731Z,98485.22
2022-09-18T17:43:25.470Z,98481.34
2022-09-18T17:45:56.935Z,98489.81
2022-09-18T17:48:26.074Z,98482.00
2022-09-18T17:51:01.737Z,98472.22
2022-09-18T17:53:30.460Z,98476.47
2022-09-18T17:55:59.948Z,98476.06
2022-09-18T17:58:28.612Z,98472.63
2022-09-18T18:00:56.967Z,98478.34
2022-09-18T18:03:26.018Z,98475.16
2022-09-18T18:05:57.573Z,98476.78
2022-09-18T18:08:28.170Z,98470.66
2022-09-18T18:10:56.940Z,98477.31
2022-09-18T18:13:24.913Z,98478.22
2022-09-18T18:15:53.730Z,98481.03
2022-09-18T18:18:21.580Z,98485.69
2022-09-18T18:20:51.111Z,98483.34
2022-09-18T18:23:19.553Z,98481.09
2022-09-18T18:25:48.621Z,98484.16
2022-09-18T18:28:16.320Z,98479.50
2022-09-18T18:30:47.679Z,98482.63
2022-09-18T18:33:15.691Z,98490.41
2022-09-18T18:35:43.419Z,98480.31
2022-09-18T18:38:13.719Z,98490.72
2022-09-18T18:40:41.496Z,98492.31
2022-09-18T18:43:14.999Z,98488.88
2022-09-18T18:45:52.572Z,98490.41
2022-09-18T18:48:20.832Z,98486.59
2022-09-18T18:50:51.117Z,98488.69
2022-09-18T18:53:18.805Z,98490.94
2022-09-18T18:55:49.124Z,98500.00
2022-09-18T18:58:18.276Z,98500.47
2022-09-18T19:00:46.159Z,98496.22
2022-09-18T19:03:14.974Z,98495.03
2022-09-18T19:05:42.753Z,98499.00
2022-09-18T19:08:10.450Z,98497.31
2022-09-18T19:10:40.374Z,98504.66
2022-09-18T19:13:08.111Z,98500.31
2022-09-18T19:15:38.507Z,98509.25
2022-09-18T19:18:06.333Z,98505.97
2022-09-18T19:20:35.677Z,98483.72
2022-09-18T19:23:06.791Z,98481.50
2022-09-18T19:25:35.542Z,98489.78
2022-09-18T19:28:03.539Z,98492.16
2022-09-18T19:30:31.275Z,98490.28
2022-09-18T19:33:00.301Z,98487.28
2022-09-18T19:35:30.316Z,98492.69
2022-09-18T19:38:01.175Z,98497.66
2022-09-18T19:40:32.116Z,98498.09
2022-09-18T19:43:04.642Z,98501.66
2022-09-18T19:45:34.855Z,98502.28
2022-09-18T19:48:06.104Z,98499.66
2022-09-18T19:50:37.572Z,98512.97
2022-09-18T19:53:05.285Z,98503.97
2022-09-18T19:55:33.373Z,98520.50
2022-09-18T19:58:01.430Z,98520.78
2022-09-18T20:00:30.833Z,98528.69
2022-09-18T20:02:59.519Z,98533.09
2022-09-18T20:05:28.648Z,98533.28
2022-09-18T20:07:56.296Z,98530.06
2022-09-18T20:10:24.330Z,98541.63
2022-09-18T20:12:53.900Z,98545.44
2022-09-18T20:15:21.779Z,98532.19
2022-09-18T20:17:49.644Z,98539.19
2022-09-18T20:20:17.688Z,98551.78
2022-09-18T20:22:46.719Z,98550.25
2022-09-18T20:25:16.486Z,98550.19
2022-09-18T20:27:44.185Z,98558.59
2022-09-18T20:30:14.425Z,98553.13
2022-09-18T20:32:42.242Z,98552.44
2022-09-18T20:35:10.899Z,98562.06
2022-09-18T20:37:41.100Z,98556.31
2022-09-18T20:40:12.557Z,98559.78
2022-09-18T20:42:40.303Z,98556.66
2022-09-18T20:45:08.592Z,98553.31
2022-09-18T20:47:38.123Z,98548.72
2022-09-18T20:50:07.475Z,98541.63
2022-09-18T20:52:37.127Z,98541.72
2022-09-18T20:55:08.234Z,98542.88
2022-09-18T20:57:38.159Z,98540.66
2022-09-18T21:00:07.877Z,98522.06
2022-09-18T21:02:36.148Z,98519.00
2022-09-18T21:05:07.643Z,98513.47
2022-09-18T21:07:35.412Z,98510.19
2022-09-18T21:10:03.169Z,98505.75
2022-09-18T21:12:38.310Z,98510.59
2022-09-18T21:15:09.907Z,98510.69
2022-09-18T21:17:38.351Z,98504.53
2022-09-18T21:20:07.243Z,98509.94
2022-09-18T21:22:58.281Z,98508.31
2022-09-18T21:25:25.980Z,98506.69
2022-09-18T21:27:55.164Z,98505.69
2022-09-18T21:30:26.558Z,98505.72
2022-09-18T21:32:55.732Z,98506.34
2022-09-18T21:35:23.694Z,98509.72
2022-09-18T21:37:52.223Z,98502.25
2022-09-18T21:40:19.978Z,98514.34
2022-09-18T21:42:49.911Z,98499.94
2022-09-18T21:45:20.906Z,98510.50
2022-09-18T21:47:51.011Z,98500.81
2022-09-18T21:50:19.130Z,98504.91
2022-09-18T21:52:46.788Z,98509.06
2022-09-18T21:55:14.483Z,98500.91
2022-09-18T21:57:42.321Z,98504.16
2022-09-18T22:00:13.213Z,98505.91
2022-09-18T22:02:43.273Z,98509.44
2022-09-18T22:05:14.042Z,98499.22
2022-09-18T22:07:43.255Z,98512.94
2022-09-18T22:10:11.320Z,98511.84
2022-09-18T22:12:39.812Z,98524.72
2022-09-18T22:15:08.403Z,98517.16
2022-09-18T22:17:36.145Z,98530.22
2022-09-18T22:20:04.274Z,98527.50
2022-09-18T22:22:33.387Z,98528.34
2022-09-18T22:25:02.212Z,98541.22
2022-09-18T22:27:29.924Z,98544.16
2022-09-18T22:29:57.595Z,98550.75
2022-09-18T22:32:25.275Z,98545.63
2022-09-18T22:34:53.403Z,98552.41
2022-09-18T22:37:23.724Z,98561.22
2022-09-18T22:39:52.985Z,98562.88
2022-09-18T22:42:20.738Z,98572.03
2022-09-18T22:44:48.519Z,98590.16
2022-09-18T22:47:16.251Z,98619.97
2022-09-18T22:49:43.929Z,98619.81
2022-09-18T22:52:11.644Z,98625.88
2022-09-18T22:54:39.371Z,98627.41
2022-09-18T22:57:08.408Z,98632.16
2022-09-18T22:59:36.150Z,98642.56
2022-09-18T23:02:06.506Z,98646.47
2022-09-18T23:04:36.660Z,98646.53
2022-09-18T23:07:04.509Z,98646.50
2022-09-18T23:09:34.331Z,98651.47
2022-09-18T23:12:02.233Z,98658.13
2022-09-18T23:14:32.181Z,98654.22
2022-09-18T23:17:01.770Z,98655.72
2022-09-18T23:19:31.629Z,98657.63
2022-09-18T23:21:59.994Z,98654.84
2022-09-18T23:24:28.220Z,98652.22
2022-09-18T23:26:58.062Z,98648.75
2022-09-18T23:29:31.700Z,98660.34
2022-09-18T23:32:00.898Z,98667.81
2022-09-18T23:34:33.565Z,98673.25
2022-09-18T23:37:01.780Z,98667.22
2022-09-18T23:39:30.796Z,98660.13
2022-09-18T23:42:01.282Z,98672.28
2022-09-18T23:44:30.907Z,98683.50
2022-09-18T23:47:00.468Z,98679.50
2022-09-18T23:49:28.913Z,98685.28
2022-09-18T23:51:56.952Z,98689.50
2022-09-18T23:54:29.333Z,98700.72
2022-09-18T23:56:57.037Z,98702.50
2022-09-18T23:59:26.148Z,98691.06
